createdAt,value
2023-01-30T00:01:48.549Z,84.41
2023-01-30T00:04:51.607Z,85.19
2023-01-30T00:07:54.305Z,85.51
2023-01-30T00:10:57.332Z,86.06
2023-01-30T00:14:01.653Z,85.71
2023-01-30T00:17:04.726Z,87.83
2023-01-30T00:20:07.771Z,87.94
2023-01-30T00:23:10.781Z,87.10
2023-01-30T00:26:14.229Z,87.74
2023-01-30T00:29:18.137Z,87.90
2023-01-30T00:32:20.841Z,88.46
2023-01-30T00:35:28.835Z,87.98
2023-01-30T00:38:31.698Z,87.08
2023-01-30T00:41:53.135Z,85.60
2023-01-30T00:45:14.176Z,86.20
2023-01-30T00:48:17.264Z,86.85
2023-01-30T00:51:20.001Z,86.65
2023-01-30T00:54:23.618Z,87.33
2023-01-30T00:57:27.222Z,86.88
2023-01-30T01:00:30.938Z,87.96
2023-01-30T01:03:33.623Z,87.31
2023-01-30T01:06:37.648Z,86.59
2023-01-30T01:09:40.843Z,85.61
2023-01-30T01:12:44.942Z,87.98
2023-01-30T01:15:47.606Z,88.59
2023-01-30T01:18:51.586Z,89.23
2023-01-30T01:21:54.502Z,89.04
2023-01-30T01:24:57.533Z,89.96
2023-01-30T01:28:00.267Z,89.49
2023-01-30T01:31:14.030Z,88.95
2023-01-30T01:34:16.910Z,88.47
2023-01-30T01:37:20.148Z,87.85
2023-01-30T01:40:41.994Z,87.52
2023-01-30T01:44:00.045Z,86.58
2023-01-30T01:47:03.161Z,87.11
2023-01-30T01:50:12.416Z,87.27
2023-01-30T01:53:19.376Z,88.00
2023-01-30T01:56:24.066Z,87.67
2023-01-30T01:59:33.098Z,87.47
2023-01-30T02:02:36.354Z,87.17
2023-01-30T02:05:45.339Z,86.71
2023-01-30T02:08:53.634Z,87.13
2023-01-30T02:12:02.079Z,86.64
2023-01-30T02:15:06.146Z,86.28
2023-01-30T02:18:09.650Z,85.66
2023-01-30T02:21:21.204Z,86.63
2023-01-30T02:24:33.379Z,87.76
2023-01-30T02:28:04.726Z,88.87
2023-01-30T02:31:35.543Z,88.43
2023-01-30T02:34:59.964Z,88.14
2023-01-30T02:38:27.525Z,87.32
2023-01-30T02:41:40.991Z,86.61
2023-01-30T02:45:10.068Z,85.20
2023-01-30T02:48:30.798Z,85.46
2023-01-30T02:51:39.271Z,86.00
2023-01-30T02:54:42.081Z,85.94
2023-01-30T02:57:45.489Z,87.09
2023-01-30T03:01:12.297Z,86.84
2023-01-30T03:04:35.881Z,90.24
2023-01-30T03:07:51.102Z,90.04
2023-01-30T03:11:02.376Z,88.73
2023-01-30T03:14:26.975Z,88.65
2023-01-30T03:17:33.195Z,89.15
2023-01-30T03:20:40.887Z,89.32
2023-01-30T03:23:46.987Z,88.73
2023-01-30T03:27:02.563Z,88.28
2023-01-30T03:30:06.444Z,88.23
2023-01-30T03:33:09.197Z,88.65
2023-01-30T03:36:12.759Z,89.10
2023-01-30T03:39:15.963Z,88.22
2023-01-30T03:42:19.406Z,87.55
2023-01-30T03:45:22.182Z,88.22
2023-01-30T03:48:25.260Z,89.05
2023-01-30T03:51:29.419Z,88.49
2023-01-30T03:54:33.043Z,89.46
2023-01-30T03:57:35.911Z,89.47
2023-01-30T04:00:39.032Z,88.65
2023-01-30T04:03:43.025Z,88.53
2023-01-30T04:06:45.833Z,88.10
2023-01-30T04:09:48.938Z,88.36
2023-01-30T04:12:53.080Z,89.07
2023-01-30T04:16:16.947Z,88.24
2023-01-30T04:19:23.404Z,88.82
2023-01-30T04:22:29.084Z,89.74
2023-01-30T04:25:31.901Z,88.63
2023-01-30T04:28:36.387Z,90.87
2023-01-30T04:31:39.508Z,89.81
2023-01-30T04:34:44.105Z,89.22
2023-01-30T04:37:47.257Z,89.48
2023-01-30T04:40:54.146Z,89.32
2023-01-30T04:43:56.999Z,89.23
2023-01-30T04:47:00.234Z,88.86
2023-01-30T04:50:03.884Z,88.79
2023-01-30T04:53:07.001Z,88.24
2023-01-30T04:56:09.927Z,88.12
2023-01-30T04:59:15.372Z,87.92
2023-01-30T05:02:18.493Z,89.61
2023-01-30T05:05:26.052Z,89.76
2023-01-30T05:08:29.088Z,88.60
2023-01-30T05:11:33.075Z,87.99
2023-01-30T05:14:35.816Z,89.07
2023-01-30T05:17:39.068Z,89.00
2023-01-30T05:20:41.714Z,88.85
2023-01-30T05:23:45.037Z,88.41
2023-01-30T05:26:47.937Z,88.87
2023-01-30T05:29:51.003Z,88.78
2023-01-30T05:32:53.633Z,88.58
2023-01-30T05:35:56.828Z,88.45
2023-01-30T05:38:59.529Z,88.46
2023-01-30T05:42:03.651Z,89.60
2023-01-30T05:45:07.002Z,89.84
2023-01-30T05:48:10.063Z,89.53
2023-01-30T05:51:24.412Z,89.38
2023-01-30T05:54:27.501Z,89.21
2023-01-30T05:57:30.188Z,89.99
2023-01-30T06:00:33.396Z,89.62
2023-01-30T06:03:36.700Z,89.28
2023-01-30T06:06:39.570Z,89.24
2023-01-30T06:09:42.657Z,90.11
2023-01-30T06:12:45.334Z,90.95
2023-01-30T06:15:49.038Z,91.06
2023-01-30T06:18:51.862Z,90.26
2023-01-30T06:21:55.085Z,89.38
2023-01-30T06:24:57.790Z,89.81
2023-01-30T06:28:00.893Z,90.40
2023-01-30T06:31:06.571Z,90.45
2023-01-30T06:34:11.463Z,89.95
2023-01-30T06:37:14.290Z,90.35
2023-01-30T06:40:17.815Z,91.04
2023-01-30T06:43:20.500Z,91.42
2023-01-30T06:46:23.616Z,91.69
2023-01-30T06:49:26.721Z,92.15
2023-01-30T06:52:29.757Z,91.40
2023-01-30T06:55:36.876Z,90.88
2023-01-30T06:58:40.250Z,90.47
2023-01-30T07:01:42.974Z,90.64
2023-01-30T07:04:46.163Z,89.59
2023-01-30T07:07:49.031Z,89.67
2023-01-30T07:10:52.128Z,90.22
2023-01-30T07:13:54.823Z,91.07
2023-01-30T07:16:58.041Z,91.05
2023-01-30T07:20:00.834Z,91.39
2023-01-30T07:23:04.215Z,91.58
2023-01-30T07:26:07.238Z,91.30
2023-01-30T07:29:10.383Z,91.30
2023-01-30T07:32:20.002Z,91.41
2023-01-30T07:35:24.999Z,91.36
2023-01-30T07:38:27.643Z,91.07
2023-01-30T07:41:31.065Z,90.87
2023-01-30T07:44:36.539Z,90.98
2023-01-30T07:47:39.736Z,90.88
2023-01-30T07:50:43.496Z,90.74
2023-01-30T07:53:51.725Z,90.67
2023-01-30T07:56:54.506Z,90.44
2023-01-30T07:59:57.809Z,90.74
2023-01-30T08:03:00.626Z,90.96
2023-01-30T08:06:03.937Z,90.54
2023-01-30T08:09:07.738Z,90.51
2023-01-30T08:12:10.799Z,90.65
2023-01-30T08:15:13.576Z,90.35
2023-01-30T08:18:16.913Z,90.13
2023-01-30T08:21:19.628Z,89.95
2023-01-30T08:24:22.685Z,90.09
2023-01-30T08:27:25.426Z,90.19
2023-01-30T08:30:30.667Z,90.39
2023-01-30T08:33:34.058Z,90.45
2023-01-30T08:36:37.155Z,90.09
2023-01-30T08:39:39.863Z,89.74
2023-01-30T08:42:46.175Z,90.23
2023-01-30T08:45:49.244Z,89.44
2023-01-30T08:48:52.305Z,89.67
2023-01-30T08:51:55.083Z,89.96
2023-01-30T08:54:58.817Z,90.29
2023-01-30T08:58:01.975Z,90.34
2023-01-30T09:01:08.630Z,89.75
2023-01-30T09:04:11.465Z,89.28
2023-01-30T09:07:14.504Z,88.90
2023-01-30T09:10:18.327Z,88.64
2023-01-30T09:13:21.479Z,88.51
2023-01-30T09:16:24.260Z,88.61
2023-01-30T09:19:28.893Z,88.49
2023-01-30T09:22:31.998Z,88.74
2023-01-30T09:25:35.169Z,88.68
2023-01-30T09:28:37.860Z,88.61
2023-01-30T09:31:41.461Z,88.55
2023-01-30T09:34:44.197Z,88.09
2023-01-30T09:37:52.124Z,87.04
2023-01-30T09:41:01.087Z,84.28
2023-01-30T09:44:35.247Z,82.62
2023-01-30T09:48:14.005Z,80.24
2023-01-30T09:51:36.505Z,81.00
2023-01-30T09:54:42.915Z,80.75
2023-01-30T09:57:49.227Z,79.69
2023-01-30T10:00:55.380Z,75.01
2023-01-30T10:04:24.425Z,71.46
2023-01-30T10:07:36.273Z,68.65
2023-01-30T10:11:10.953Z,65.57
2023-01-30T10:14:32.068Z,65.26
2023-01-30T10:17:53.073Z,66.00
2023-01-30T10:21:31.063Z,68.58
2023-01-30T10:24:49.693Z,70.07
2023-01-30T10:28:35.105Z,71.02
2023-01-30T10:31:47.434Z,72.16
2023-01-30T10:34:53.766Z,73.04
2023-01-30T10:37:57.531Z,73.56
2023-01-30T10:41:13.578Z,74.30
2023-01-30T10:44:18.736Z,74.87
2023-01-30T10:47:48.091Z,75.52
2023-01-30T10:50:59.884Z,75.97
2023-01-30T10:54:13.599Z,76.23
2023-01-30T10:57:48.520Z,76.74
2023-01-30T11:01:01.932Z,77.07
2023-01-30T11:04:14.523Z,76.87
2023-01-30T11:07:17.334Z,76.54
2023-01-30T11:10:24.132Z,76.66
2023-01-30T11:13:34.011Z,76.64
2023-01-30T11:16:56.944Z,76.69
2023-01-30T11:20:06.398Z,77.20
2023-01-30T11:23:41.596Z,77.67
2023-01-30T11:26:47.733Z,78.00
2023-01-30T11:30:04.707Z,78.11
2023-01-30T11:33:18.528Z,78.10
2023-01-30T11:36:35.836Z,78.37
2023-01-30T11:39:50.716Z,78.51
2023-01-30T11:43:04.027Z,79.07
2023-01-30T11:46:14.483Z,78.72
2023-01-30T11:49:47.057Z,79.33
2023-01-30T11:52:46.857Z,78.35
2023-01-30T11:56:02.942Z,78.38
2023-01-30T11:59:37.211Z,78.54
2023-01-30T12:02:40.576Z,78.85
2023-01-30T12:05:47.866Z,79.73
2023-01-30T12:08:55.113Z,80.32
2023-01-30T12:11:58.862Z,80.21
2023-01-30T12:15:26.146Z,79.33
2023-01-30T12:18:35.753Z,79.69
2023-01-30T12:22:22.083Z,79.96
2023-01-30T12:25:35.965Z,80.04
2023-01-30T12:28:47.933Z,80.07
2023-01-30T12:32:13.527Z,79.35
2023-01-30T12:35:24.308Z,79.73
2023-01-30T12:38:51.670Z,79.40
2023-01-30T12:45:25.699Z,79.29
2023-01-30T12:48:44.180Z,78.91
2023-01-30T12:52:13.897Z,79.10
2023-01-30T12:55:22.791Z,79.22
2023-01-30T12:58:35.468Z,79.09
2023-01-30T13:02:02.206Z,78.77
2023-01-30T13:05:21.632Z,78.93
2023-01-30T13:09:07.120Z,78.72
2023-01-30T13:12:24.317Z,78.71
2023-01-30T13:15:44.288Z,78.60
2023-01-30T13:18:51.027Z,79.26
2023-01-30T13:22:19.778Z,78.90
2023-01-30T13:25:41.491Z,78.55
2023-01-30T13:28:47.843Z,78.11
2023-01-30T13:31:55.085Z,78.28
2023-01-30T13:34:59.701Z,78.01
2023-01-30T13:38:05.288Z,78.41
2023-01-30T13:41:12.917Z,78.63
2023-01-30T13:44:27.976Z,78.80
2023-01-30T13:47:49.654Z,79.23
2023-01-30T13:51:10.738Z,79.14
2023-01-30T13:54:22.650Z,79.12
2023-01-30T13:58:11.716Z,79.00
2023-01-30T14:01:15.034Z,79.72
2023-01-30T14:04:37.071Z,78.83
2023-01-30T14:07:42.143Z,79.01
2023-01-30T14:10:45.434Z,78.32
2023-01-30T14:13:53.881Z,78.34
2023-01-30T14:17:09.216Z,78.46
2023-01-30T14:20:17.416Z,78.78
2023-01-30T14:23:34.512Z,78.90
2023-01-30T14:27:02.160Z,79.01
2023-01-30T14:30:34.730Z,78.93
2023-01-30T14:33:51.692Z,79.04
2023-01-30T14:36:55.035Z,78.52
2023-01-30T14:40:00.007Z,78.84
2023-01-30T14:43:12.272Z,79.16
2023-01-30T14:46:18.102Z,79.02
2023-01-30T14:49:28.417Z,79.53
2023-01-30T14:52:39.197Z,79.62
2023-01-30T14:55:42.450Z,79.91
2023-01-30T14:59:17.215Z,80.39
2023-01-30T15:02:24.433Z,80.18
2023-01-30T15:05:39.220Z,80.94
2023-01-30T15:08:44.677Z,80.65
2023-01-30T15:11:56.876Z,81.01
2023-01-30T15:15:21.555Z,81.17
2023-01-30T15:18:39.169Z,82.02
2023-01-30T15:21:52.329Z,83.15
2023-01-30T15:25:26.200Z,84.12
2023-01-30T15:28:51.041Z,84.53
2023-01-30T15:32:02.891Z,85.42
2023-01-30T15:35:11.984Z,86.23
2023-01-30T15:38:34.709Z,85.40
2023-01-30T15:41:42.550Z,86.58
2023-01-30T15:44:45.619Z,86.75
2023-01-30T15:47:54.967Z,87.21
2023-01-30T15:51:00.349Z,87.87
2023-01-30T15:54:10.590Z,88.11
2023-01-30T15:57:21.052Z,88.68
2023-01-30T16:00:49.612Z,88.83
2023-01-30T16:03:53.666Z,89.11
2023-01-30T16:06:56.429Z,89.13
2023-01-30T16:10:07.321Z,90.32
2023-01-30T16:13:10.512Z,90.91
2023-01-30T16:16:18.925Z,90.44
2023-01-30T16:19:28.444Z,91.23
2023-01-30T16:22:35.405Z,90.16
2023-01-30T16:25:38.583Z,90.56
2023-01-30T16:28:41.917Z,91.47
2023-01-30T16:31:47.844Z,92.23
2023-01-30T16:34:51.525Z,92.37
2023-01-30T16:37:56.576Z,91.66
2023-01-30T16:41:01.198Z,93.58
2023-01-30T16:44:23.304Z,93.45
2023-01-30T16:47:32.035Z,92.83
2023-01-30T16:50:35.128Z,92.80
2023-01-30T16:53:51.543Z,92.30
2023-01-30T16:56:57.501Z,92.16
2023-01-30T17:00:03.869Z,93.14
2023-01-30T17:03:20.900Z,92.48
2023-01-30T17:06:35.920Z,92.03
2023-01-30T17:09:47.192Z,92.65
2023-01-30T17:12:52.909Z,93.05
2023-01-30T17:16:26.284Z,92.05
2023-01-30T17:19:29.741Z,92.05
2023-01-30T17:22:33.356Z,91.79
2023-01-30T17:25:41.659Z,92.19
2023-01-30T17:28:48.183Z,92.50
2023-01-30T17:31:53.585Z,92.42
2023-01-30T17:34:59.976Z,91.64
2023-01-30T17:38:05.929Z,92.12
2023-01-30T17:41:21.167Z,93.02
2023-01-30T17:44:24.951Z,92.35
2023-01-30T17:47:29.361Z,91.46
2023-01-30T17:50:33.739Z,91.63
2023-01-30T17:53:39.972Z,91.63
2023-01-30T17:56:48.762Z,91.19
2023-01-30T17:59:51.769Z,91.20
2023-01-30T18:02:55.965Z,91.40
2023-01-30T18:06:00.751Z,91.25
2023-01-30T18:09:04.943Z,91.33
2023-01-30T18:12:08.481Z,91.28
2023-01-30T18:15:16.701Z,91.74
2023-01-30T18:18:21.312Z,92.27
2023-01-30T18:21:26.578Z,92.34
2023-01-30T18:24:30.358Z,92.41
2023-01-30T18:27:34.429Z,92.39
2023-01-30T18:30:38.648Z,91.75
2023-01-30T18:33:45.265Z,91.35
2023-01-30T18:36:50.055Z,91.10
2023-01-30T18:39:53.532Z,90.71
2023-01-30T18:42:59.213Z,90.35
2023-01-30T18:46:13.015Z,90.31
2023-01-30T18:49:17.333Z,90.23
2023-01-30T18:52:21.185Z,90.01
2023-01-30T18:55:25.889Z,90.09
2023-01-30T18:58:32.829Z,89.20
2023-01-30T19:01:42.810Z,88.23
2023-01-30T19:04:50.402Z,87.83
2023-01-30T19:07:56.281Z,86.85
2023-01-30T19:11:30.352Z,85.48
2023-01-30T19:14:35.608Z,84.97
2023-01-30T19:17:40.164Z,84.39
2023-01-30T19:20:45.678Z,84.64
2023-01-30T19:23:51.714Z,84.12
2023-01-30T19:26:56.647Z,84.24
2023-01-30T19:30:01.128Z,83.95
2023-01-30T19:33:10.757Z,83.58
2023-01-30T19:36:17.954Z,84.18
2023-01-30T19:39:22.429Z,83.75
2023-01-30T19:42:27.922Z,83.81
2023-01-30T19:45:33.424Z,83.96
2023-01-30T19:48:39.225Z,83.95
2023-01-30T19:51:43.936Z,83.84
2023-01-30T19:54:48.547Z,83.98
2023-01-30T19:57:54.330Z,83.68
2023-01-30T20:01:06.480Z,83.53
2023-01-30T20:04:11.225Z,83.22
2023-01-30T20:07:20.342Z,83.36
2023-01-30T20:10:25.735Z,84.23
2023-01-30T20:13:29.993Z,83.54
2023-01-30T20:16:36.232Z,83.45
2023-01-30T20:19:40.107Z,83.31
2023-01-30T20:22:44.125Z,83.27
2023-01-30T20:25:48.648Z,83.37
2023-01-30T20:28:58.958Z,82.98
2023-01-30T20:32:06.795Z,82.95
2023-01-30T20:35:11.729Z,82.74
2023-01-30T20:38:15.908Z,82.69
2023-01-30T20:41:26.193Z,82.78
2023-01-30T20:44:30.090Z,82.68
2023-01-30T20:47:35.309Z,82.62
2023-01-30T20:50:39.560Z,82.44
2023-01-30T20:53:51.577Z,81.95
2023-01-30T20:56:57.248Z,81.79
2023-01-30T21:00:02.215Z,81.73
2023-01-30T21:03:05.929Z,81.70
2023-01-30T21:06:09.911Z,81.76
2023-01-30T21:09:19.429Z,81.53
2023-01-30T21:12:24.007Z,81.47
2023-01-30T21:15:27.662Z,81.35
2023-01-30T21:18:35.401Z,81.48
2023-01-30T21:21:42.872Z,81.52
2023-01-30T21:24:46.941Z,81.37
2023-01-30T21:27:50.095Z,81.41
2023-01-30T21:30:54.573Z,81.29
2023-01-30T21:34:00.316Z,81.31
2023-01-30T21:37:23.032Z,81.08
2023-01-30T21:40:44.307Z,81.17
2023-01-30T21:43:48.886Z,81.02
2023-01-30T21:46:52.220Z,80.84
2023-01-30T21:49:55.530Z,80.94
2023-01-30T21:52:58.387Z,81.15
2023-01-30T21:56:02.027Z,81.17
2023-01-30T21:59:05.814Z,81.10
2023-01-30T22:02:10.482Z,80.92
2023-01-30T22:05:13.560Z,80.84
2023-01-30T22:08:16.362Z,80.76
2023-01-30T22:11:19.730Z,80.84
2023-01-30T22:14:22.556Z,80.79
2023-01-30T22:17:25.736Z,80.72
2023-01-30T22:20:28.514Z,80.41
2023-01-30T22:23:33.679Z,80.15
2023-01-30T22:26:36.881Z,79.98
2023-01-30T22:29:39.946Z,80.12
2023-01-30T22:32:42.701Z,79.90
2023-01-30T22:35:51.031Z,79.87
2023-01-30T22:38:54.292Z,79.94
2023-01-30T22:41:57.317Z,80.21
2023-01-30T22:45:00.042Z,80.30
2023-01-30T22:48:03.259Z,80.40
2023-01-30T22:51:08.741Z,80.45
2023-01-30T22:54:16.984Z,80.48
2023-01-30T22:57:19.759Z,80.49
2023-01-30T23:00:22.874Z,80.39
2023-01-30T23:03:25.657Z,80.24
2023-01-30T23:06:30.256Z,80.04
2023-01-30T23:09:32.995Z,79.58
2023-01-30T23:12:54.788Z,79.23
2023-01-30T23:16:02.060Z,79.08
2023-01-30T23:19:06.852Z,79.04
2023-01-30T23:22:09.598Z,79.14
2023-01-30T23:25:12.549Z,79.18
2023-01-30T23:28:15.472Z,79.27
2023-01-30T23:31:21.497Z,79.18
2023-01-30T23:34:24.655Z,79.45
2023-01-30T23:37:47.645Z,79.37
2023-01-30T23:40:50.524Z,79.49
2023-01-30T23:43:53.839Z,79.73
2023-01-30T23:46:56.560Z,79.68
2023-01-30T23:49:59.516Z,79.53
2023-01-30T23:53:02.221Z,79.73
2023-01-30T23:56:06.727Z,79.66
2023-01-30T23:59:09.964Z,79.97
